Time;durP1;ratioP1;P1;durP2;ratioP2;P2;SDS_P1;SDS_P2;PMS_P1;PMS_P2;Temp;Humidity;BMP_temperature;BMP_pressure;BME280_temperature;BME280_humidity;BME280_pressure;Samples;Min_cycle;Max_cycle;Signal;HPM_P1;HPM_P2
2022/07/24 00:02:05;;;;;;;13.73;9.55;;;;;;;20.02;100.00;101874.09;5103774;28;20353;-72
2022/07/24 00:04:30;;;;;;;16.38;8.48;;;;;;;20.06;100.00;101865.19;5107639;28;20395;-71
2022/07/24 00:06:56;;;;;;;12.45;8.60;;;;;;;20.06;100.00;101862.50;5106504;28;20133;-71
2022/07/24 00:09:21;;;;;;;14.75;9.30;;;;;;;20.02;100.00;101863.41;5100542;28;20391;-71
2022/07/24 00:11:47;;;;;;;15.45;9.13;;;;;;;20.01;100.00;101861.69;5102163;28;20031;-71
2022/07/24 00:14:12;;;;;;;14.25;9.60;;;;;;;20.01;100.00;101856.34;5105498;28;20031;-71
2022/07/24 00:16:38;;;;;;;13.23;8.27;;;;;;;20.01;100.00;101849.19;5106526;28;20028;-72
2022/07/24 00:19:03;;;;;;;13.65;9.98;;;;;;;20.00;100.00;101850.09;5099725;28;20142;-72
2022/07/24 00:21:28;;;;;;;16.15;10.25;;;;;;;19.95;100.00;101856.34;5087345;28;20259;-72
2022/07/24 00:23:54;;;;;;;19.08;11.25;;;;;;;19.91;100.00;101850.13;5112921;28;20110;-71
2022/07/24 00:26:19;;;;;;;15.07;11.18;;;;;;;19.88;100.00;101859.06;5105296;28;20032;-71
2022/07/24 00:28:45;;;;;;;17.08;9.85;;;;;;;19.83;100.00;101862.66;5108063;28;20031;-71
2022/07/24 00:31:10;;;;;;;18.95;11.73;;;;;;;19.78;100.00;101854.66;5114652;28;20035;-71
2022/07/24 00:33:36;;;;;;;22.67;11.07;;;;;;;19.76;100.00;101856.41;5101862;28;20036;-71
2022/07/24 00:36:01;;;;;;;19.17;11.27;;;;;;;19.76;100.00;101867.09;5100803;28;20019;-71
2022/07/24 00:38:27;;;;;;;19.50;11.80;;;;;;;19.73;100.00;101864.47;5097186;28;20114;-70
2022/07/24 00:40:52;;;;;;;21.35;11.70;;;;;;;19.71;100.00;101868.94;5116551;28;20446;-71
2022/07/24 00:43:17;;;;;;;19.95;11.70;;;;;;;19.70;100.00;101868.03;5110545;28;20432;-72
2022/07/24 00:45:44;;;;;;;19.20;11.18;;;;;;;19.69;100.00;101860.03;5107798;28;20429;-72
2022/07/24 00:48:10;;;;;;;14.73;10.50;;;;;;;19.67;100.00;101865.38;5102501;28;20051;-71
2022/07/24 00:50:36;;;;;;;21.80;10.95;;;;;;;19.67;100.00;101854.69;5110995;28;20461;-71
2022/07/24 00:53:02;;;;;;;17.00;10.15;;;;;;;19.71;100.00;101852.91;5115403;28;20089;-71
2022/07/24 00:55:27;;;;;;;18.58;10.95;;;;;;;19.71;100.00;101852.91;5108185;28;20065;-72
2022/07/24 00:57:53;;;;;;;14.55;10.02;;;;;;;19.66;100.00;101855.59;5106486;28;20067;-72
2022/07/24 01:00:19;;;;;;;16.73;10.60;;;;;;;19.65;100.00;101848.47;5103779;28;20531;-72
2022/07/24 01:02:45;;;;;;;17.05;9.93;;;;;;;19.61;100.00;101852.03;5112337;28;20110;-72
2022/07/24 01:05:12;;;;;;;18.83;10.45;;;;;;;19.59;100.00;101850.28;5097995;28;20107;-70
2022/07/24 01:07:38;;;;;;;20.13;11.00;;;;;;;19.53;100.00;101851.19;5110291;28;20030;-71
2022/07/24 01:10:05;;;;;;;18.50;10.32;;;;;;;19.49;100.00;101844.09;5106894;28;20028;-72
2022/07/24 01:12:33;;;;;;;14.68;10.82;;;;;;;19.50;100.00;101841.41;5103069;28;20073;-71
2022/07/24 01:14:58;;;;;;;18.30;10.50;;;;;;;19.52;100.00;101841.41;5099255;28;20032;-71
2022/07/24 01:17:29;;;;;;;14.95;9.90;;;;;;;19.54;100.00;101829.81;5114500;28;20026;-72
2022/07/24 01:19:54;;;;;;;18.33;10.40;;;;;;;19.54;100.00;101827.16;5100836;28;20080;-71
2022/07/24 01:22:20;;;;;;;12.18;9.02;;;;;;;19.52;100.00;101836.97;5096471;28;20020;-71
2022/07/24 01:24:45;;;;;;;18.80;9.95;;;;;;;19.51;100.00;101828.97;5100945;28;20413;-70
2022/07/24 01:27:11;;;;;;;12.88;8.35;;;;;;;19.54;100.00;101834.28;5111940;28;20035;-71
2022/07/24 01:29:36;;;;;;;14.73;9.05;;;;;;;19.46;100.00;101831.66;5112745;28;20038;-71
2022/07/24 01:32:01;;;;;;;15.55;9.38;;;;;;;19.37;100.00;101834.34;5096846;28;20027;-70
2022/07/24 01:34:27;;;;;;;15.55;9.35;;;;;;;19.41;100.00;101837.91;5103860;28;20058;-71
2022/07/24 01:36:52;;;;;;;16.10;9.30;;;;;;;19.40;100.00;101830.78;5100279;28;20027;-70
2022/07/24 01:39:17;;;;;;;18.02;8.52;;;;;;;19.38;100.00;101838.81;5112806;28;20035;-71
2022/07/24 01:41:43;;;;;;;15.43;8.93;;;;;;;19.33;100.00;101835.25;5105471;28;20016;-72
2022/07/24 01:44:08;;;;;;;16.90;8.45;;;;;;;19.33;100.00;101832.59;5103769;28;20479;-71
2022/07/24 01:46:33;;;;;;;14.45;9.25;;;;;;;19.33;100.00;101829.94;5087901;28;20085;-72
2022/07/24 01:48:59;;;;;;;14.38;8.38;;;;;;;19.26;100.00;101823.75;5110056;28;20032;-71
2022/07/24 01:51:24;;;;;;;18.30;8.55;;;;;;;19.20;100.00;101829.97;5092852;28;20027;-71
2022/07/24 01:53:49;;;;;;;15.38;8.88;;;;;;;19.23;100.00;101818.41;5088202;28;20034;-71
2022/07/24 01:56:15;;;;;;;13.20;8.23;;;;;;;19.19;100.00;101821.97;5098220;28;20460;-71
2022/07/24 01:58:40;;;;;;;14.38;8.48;;;;;;;19.25;100.00;101824.63;5101886;28;20030;-71
2022/07/24 02:01:06;;;;;;;12.80;8.10;;;;;;;19.21;100.00;101818.41;5113593;28;20038;-71
2022/07/24 02:03:32;;;;;;;18.38;8.38;;;;;;;19.20;100.00;101813.09;5114875;28;20035;-71
2022/07/24 02:05:57;;;;;;;10.98;7.07;;;;;;;19.23;100.00;101817.53;5100561;28;20074;-72
2022/07/24 02:08:22;;;;;;;15.02;7.57;;;;;;;19.11;100.00;101808.66;5113881;28;20054;-71
2022/07/24 02:10:47;;;;;;;18.27;7.55;;;;;;;19.08;100.00;101819.34;5098308;28;20352;-72
2022/07/24 02:13:13;;;;;;;13.48;6.90;;;;;;;19.04;100.00;101813.16;5100101;28;20064;-71
2022/07/24 02:15:38;;;;;;;14.63;7.20;;;;;;;18.88;100.00;101806.06;5114319;28;20024;-71
2022/07/24 02:18:04;;;;;;;11.25;6.70;;;;;;;18.97;100.00;101799.84;5102365;28;20027;-72
2022/07/24 02:20:30;;;;;;;10.05;6.50;;;;;;;19.02;100.00;101803.38;5098589;28;20024;-72
2022/07/24 02:22:55;;;;;;;14.20;7.30;;;;;;;19.02;100.00;101796.25;5104595;28;20765;-71
2022/07/24 02:25:21;;;;;;;16.08;6.40;;;;;;;18.99;100.00;101793.59;5091415;28;20027;-72
2022/07/24 02:27:46;;;;;;;11.32;6.57;;;;;;;18.96;100.00;101798.03;5108467;28;20039;-70
2022/07/24 02:30:15;;;;;;;13.43;6.20;;;;;;;18.94;100.00;101797.19;5113054;28;20031;-71
2022/07/24 02:32:40;;;;;;;10.82;6.78;;;;;;;18.99;100.00;101792.69;5096176;28;20466;-71
2022/07/24 02:35:06;;;;;;;14.15;6.20;;;;;;;18.98;100.00;101796.28;5098629;28;20020;-71
2022/07/24 02:37:31;;;;;;;14.60;6.00;;;;;;;18.98;100.00;101796.28;5104975;28;20057;-72
2022/07/24 02:39:57;;;;;;;12.05;5.55;;;;;;;18.95;100.00;101794.50;5112941;28;20019;-71
2022/07/24 02:42:22;;;;;;;12.77;6.38;;;;;;;18.87;100.00;101791.81;5106151;28;20035;-70
2022/07/24 02:44:48;;;;;;;11.70;6.13;;;;;;;18.90;100.00;101787.41;5106121;28;20467;-71
2022/07/24 02:47:13;;;;;;;16.38;5.97;;;;;;;18.88;100.00;101790.06;5114032;28;20093;-72
2022/07/24 02:49:38;;;;;;;14.82;6.57;;;;;;;18.78;100.00;101778.50;5113814;28;20115;-71
2022/07/24 02:52:04;;;;;;;12.00;6.40;;;;;;;18.79;100.00;101784.75;5094479;28;20062;-70
2022/07/24 02:54:30;;;;;;;14.23;6.20;;;;;;;18.66;100.00;101776.75;5107814;28;20032;-71
2022/07/24 02:56:56;;;;;;;17.98;6.38;;;;;;;18.61;100.00;101772.31;5110392;28;20093;-71
2022/07/24 02:59:21;;;;;;;15.65;6.15;;;;;;;18.68;100.00;101776.78;5111493;28;20107;-71
2022/07/24 03:01:46;;;;;;;14.10;5.88;;;;;;;18.66;100.00;101778.53;5102515;28;20069;-71
2022/07/24 03:04:12;;;;;;;12.98;6.53;;;;;;;18.65;100.00;101771.41;5114275;28;20076;-70
2022/07/24 03:06:37;;;;;;;14.77;6.28;;;;;;;18.64;100.00;101764.34;5099895;28;20020;-71
2022/07/24 03:09:03;;;;;;;13.68;7.32;;;;;;;18.67;100.00;101765.19;5108367;28;20485;-71
2022/07/24 03:11:28;;;;;;;13.82;5.93;;;;;;;18.70;100.00;101767.84;5108307;28;20379;-71
2022/07/24 03:13:54;;;;;;;15.00;6.68;;;;;;;18.62;100.00;101758.97;5084318;28;20024;-72
2022/07/24 03:16:19;;;;;;;16.00;6.32;;;;;;;18.67;100.00;101767.00;5095648;28;20031;-71
2022/07/24 03:18:50;;;;;;;14.48;6.50;;;;;;;18.56;100.00;101764.34;5111661;28;20467;-70
2022/07/24 03:21:16;;;;;;;10.48;5.90;;;;;;;18.52;100.00;101760.78;5109993;28;20023;-72
2022/07/24 03:23:41;;;;;;;11.52;6.65;;;;;;;18.47;100.00;101757.22;5104701;28;20356;-71
2022/07/24 03:26:07;;;;;;;10.30;6.07;;;;;;;18.50;100.00;101753.69;5112615;28;20064;-71
2022/07/24 03:28:33;;;;;;;9.77;6.30;;;;;;;18.47;100.00;101751.91;5091255;28;20024;-71
2022/07/24 03:31:00;;;;;;;11.38;5.78;;;;;;;18.49;100.00;101742.13;5094965;28;20036;-71
2022/07/24 03:33:25;;;;;;;15.10;6.15;;;;;;;18.50;100.00;101751.91;5112923;28;20023;-70
2022/07/24 03:35:50;;;;;;;11.45;6.10;;;;;;;18.46;100.00;101744.81;5076379;28;20028;-71
2022/07/24 03:38:16;;;;;;;17.83;7.18;;;;;;;18.46;100.00;101750.16;5109450;28;20328;-72
2022/07/24 03:40:41;;;;;;;12.88;6.00;;;;;;;18.44;100.00;101746.59;5112175;28;20391;-71
2022/07/24 03:43:06;;;;;;;11.80;5.88;;;;;;;18.43;100.00;101754.59;5099303;28;20463;-71
2022/07/24 03:45:32;;;;;;;13.48;6.22;;;;;;;18.38;100.00;101757.28;5085519;28;20034;-70
2022/07/24 03:47:58;;;;;;;11.45;5.65;;;;;;;18.41;100.00;101757.25;5106538;28;20043;-71
2022/07/24 03:50:23;;;;;;;12.52;5.95;;;;;;;18.40;100.00;101760.81;5108050;28;20540;-71
2022/07/24 03:52:49;;;;;;;14.45;6.20;;;;;;;18.42;100.00;101755.47;5078255;28;20364;-72
2022/07/24 03:55:14;;;;;;;8.60;5.65;;;;;;;18.43;100.00;101750.13;5094970;28;20066;-70
2022/07/24 03:57:40;;;;;;;10.98;5.00;;;;;;;18.35;100.00;101752.84;5108903;28;20130;-70
2022/07/24 04:00:07;;;;;;;9.40;5.13;;;;;;;18.32;100.00;101757.25;5116122;28;20035;-71
2022/07/24 04:02:32;;;;;;;13.80;5.43;;;;;;;18.30;100.00;101757.28;5116513;28;20024;-71
2022/07/24 04:04:58;;;;;;;12.88;4.97;;;;;;;18.27;100.00;101756.38;5101399;28;20372;-72
2022/07/24 04:07:23;;;;;;;13.70;5.85;;;;;;;18.28;100.00;101755.50;5110529;28;20028;-71
2022/07/24 04:09:48;;;;;;;15.93;5.20;;;;;;;18.26;100.00;101749.25;5103687;28;20031;-72
2022/07/24 04:12:14;;;;;;;11.63;4.78;;;;;;;18.31;100.00;101744.81;5113943;28;20359;-72
2022/07/24 04:14:39;;;;;;;12.57;5.00;;;;;;;18.30;100.00;101743.03;5101008;28;20042;-70
2022/07/24 04:17:04;;;;;;;10.50;5.18;;;;;;;18.33;100.00;101743.06;5100297;28;20019;-71
2022/07/24 04:19:30;;;;;;;9.10;4.68;;;;;;;18.28;100.00;101731.50;5104754;28;20024;-71
2022/07/24 04:21:55;;;;;;;7.70;4.63;;;;;;;18.30;100.00;101738.63;5101027;28;20028;-71
2022/07/24 04:24:21;;;;;;;10.55;4.30;;;;;;;18.30;100.00;101735.03;5100859;28;20114;-71
2022/07/24 04:26:46;;;;;;;8.57;4.55;;;;;;;18.26;100.00;101738.59;5114155;28;20027;-71
2022/07/24 04:29:11;;;;;;;10.18;4.50;;;;;;;18.30;100.00;101743.03;5114963;28;20389;-72
2022/07/24 04:31:36;;;;;;;8.07;4.00;;;;;;;18.29;100.00;101747.50;5111870;28;20476;-71
2022/07/24 04:34:02;;;;;;;6.82;4.30;;;;;;;18.30;100.00;101753.69;5079245;28;20427;-72
2022/07/24 04:36:27;;;;;;;11.95;4.25;;;;;;;18.27;100.00;101748.38;5079427;28;20107;-71
2022/07/24 04:38:53;;;;;;;6.15;3.83;;;;;;;18.27;100.00;101756.38;5098911;28;20026;-71
2022/07/24 04:41:18;;;;;;;10.18;4.43;;;;;;;18.27;100.00;101751.03;5095361;28;20047;-72
2022/07/24 04:43:44;;;;;;;9.98;4.28;;;;;;;18.32;100.00;101743.94;5111904;28;20483;-70
2022/07/24 04:46:09;;;;;;;11.82;4.50;;;;;;;18.33;100.00;101740.41;5083405;28;20523;-71
2022/07/24 04:48:35;;;;;;;6.07;3.90;;;;;;;18.34;100.00;101745.72;5081361;28;20024;-71
2022/07/24 04:51:00;;;;;;;12.18;4.40;;;;;;;18.38;100.00;101751.94;5102524;28;20028;-71
2022/07/24 04:53:25;;;;;;;7.10;4.07;;;;;;;18.32;100.00;101760.81;5096993;28;20517;-72
2022/07/24 04:55:51;;;;;;;9.90;4.22;;;;;;;18.35;100.00;101762.59;5110712;28;20028;-72
2022/07/24 04:58:16;;;;;;;8.48;4.18;;;;;;;18.40;100.00;101759.94;5069004;28;20049;-71
2022/07/24 05:00:41;;;;;;;6.68;4.18;;;;;;;18.43;100.00;101755.47;5071536;28;20028;-71
2022/07/24 05:03:07;;;;;;;6.32;4.07;;;;;;;18.46;100.00;101757.25;5066445;28;20094;-71
2022/07/24 05:05:32;;;;;;;9.50;4.55;;;;;;;18.42;100.00;101759.03;5067648;28;20035;-71
2022/07/24 05:07:57;;;;;;;7.20;4.30;;;;;;;18.43;100.00;101760.78;5062402;28;20460;-72
2022/07/24 05:10:23;;;;;;;7.72;3.95;;;;;;;18.47;100.00;101759.03;5068207;28;20379;-72
2022/07/24 05:12:48;;;;;;;7.40;4.10;;;;;;;18.52;100.00;101749.25;5067998;28;20479;-71
2022/07/24 05:15:13;;;;;;;6.80;3.92;;;;;;;18.51;100.00;101763.47;5072289;28;20480;-71
2022/07/24 05:17:39;;;;;;;8.43;4.45;;;;;;;18.51;100.00;101760.78;5071245;28;20099;-71
2022/07/24 05:20:05;;;;;;;10.10;4.25;;;;;;;18.46;100.00;101760.81;5062653;28;20107;-71
2022/07/24 05:22:30;;;;;;;6.68;3.78;;;;;;;18.56;100.00;101771.44;5066956;28;20056;-72
2022/07/24 05:24:56;;;;;;;6.28;4.10;;;;;;;18.64;100.00;101775.88;5066076;28;20475;-71
2022/07/24 05:27:21;;;;;;;7.97;3.97;;;;;;;18.71;100.00;101779.41;5065245;28;20036;-70
2022/07/24 05:29:47;;;;;;;8.98;4.35;;;;;;;18.60;100.00;101778.53;5073465;28;20059;-71
2022/07/24 05:32:12;;;;;;;8.60;3.70;;;;;;;18.57;100.00;101774.13;5072801;28;20033;-72
2022/07/24 05:34:38;;;;;;;7.25;3.33;;;;;;;18.63;100.00;101783.88;5056378;28;20105;-72
2022/07/24 05:37:03;;;;;;;9.13;3.50;;;;;;;18.71;100.00;101782.09;5071190;28;20094;-71
2022/07/24 05:39:29;;;;;;;8.30;3.60;;;;;;;18.80;100.00;101782.06;5069244;28;20020;-71
2022/07/24 05:41:54;;;;;;;8.38;3.80;;;;;;;18.86;100.00;101779.38;5064901;28;20056;-72
2022/07/24 05:44:19;;;;;;;8.27;3.45;;;;;;;18.97;100.00;101781.16;5073757;28;20035;-72
2022/07/24 05:46:45;;;;;;;11.07;3.33;;;;;;;19.09;100.00;101778.44;5069637;28;20395;-72
2022/07/24 05:49:10;;;;;;;10.65;3.72;;;;;;;19.19;100.00;101773.94;5066953;28;20032;-72
2022/07/24 05:51:36;;;;;;;6.28;3.05;;;;;;;19.28;100.00;101781.03;5066130;28;20043;-71
2022/07/24 05:54:02;;;;;;;5.40;3.42;;;;;;;19.37;100.00;101783.66;5070079;28;20028;-71
2022/07/24 05:56:28;;;;;;;5.30;2.67;;;;;;;19.50;100.00;101787.16;5064463;28;20044;-71
2022/07/24 05:58:53;;;;;;;6.10;2.97;;;;;;;19.58;100.00;101776.44;5112690;28;20470;-73
2022/07/24 06:01:18;;;;;;;9.45;3.05;;;;;;;19.61;100.00;101771.06;5114145;28;20037;-71
2022/07/24 06:03:44;;;;;;;6.82;3.20;;;;;;;19.67;100.00;101768.38;5114660;28;20459;-71
2022/07/24 06:06:09;;;;;;;7.82;3.13;;;;;;;19.81;100.00;101769.19;5098443;28;20024;-71
2022/07/24 06:08:34;;;;;;;7.05;3.63;;;;;;;19.84;100.00;101774.50;5105114;28;20023;-71
2022/07/24 06:11:00;;;;;;;7.38;3.10;;;;;;;19.91;100.00;101775.34;5094708;28;20024;-71
2022/07/24 06:13:25;;;;;;;7.22;2.88;;;;;;;19.93;100.00;101778.91;5102617;28;20046;-72
2022/07/24 06:15:50;;;;;;;3.33;2.65;;;;;;;19.90;100.00;101773.59;5094407;28;20056;-72
2022/07/24 06:18:16;;;;;;;6.43;2.95;;;;;;;19.88;100.00;101768.22;5085254;28;20475;-72
2022/07/24 06:20:41;;;;;;;6.25;2.53;;;;;;;19.83;100.00;101777.19;5088377;28;20024;-71
2022/07/24 06:23:07;;;;;;;8.52;2.97;;;;;;;19.86;100.00;101780.72;5101833;28;20028;-71
2022/07/24 06:25:32;;;;;;;6.13;3.47;;;;;;;19.87;100.00;101774.50;5097953;28;20020;-71
2022/07/24 06:27:58;;;;;;;3.58;2.60;;;;;;;19.88;100.00;101781.59;5108895;28;20063;-70
2022/07/24 06:30:25;;;;;;;6.78;3.30;;;;;;;19.96;100.00;101791.34;5106407;28;20478;-72
2022/07/24 06:32:57;;;;;;;4.25;2.90;;;;;;;20.07;100.00;101784.13;5085887;28;20020;-72
2022/07/24 06:35:23;;;;;;;4.03;2.58;;;;;;;20.12;100.00;101794.81;5097373;28;20106;-70
2022/07/24 06:37:49;;;;;;;5.78;3.10;;;;;;;20.25;100.00;101777.72;5083416;27;20110;-73
2022/07/24 06:40:18;;;;;;;4.60;2.90;;;;;;;20.28;100.00;101779.50;5104967;28;20439;-71
2022/07/24 06:42:45;;;;;;;5.45;2.75;;;;;;;20.33;100.00;101783.94;5104835;28;20024;-73
2022/07/24 06:45:11;;;;;;;3.67;2.67;;;;;;;20.37;100.00;101784.75;5108085;28;20057;-71
2022/07/24 06:47:36;;;;;;;5.25;2.80;;;;;;;20.46;100.00;101784.69;5081233;28;20051;-72
2022/07/24 06:50:02;;;;;;;9.75;2.90;;;;;;;20.48;100.00;101777.56;5101638;28;20440;-72
2022/07/24 06:52:28;;;;;;;7.70;2.53;;;;;;;20.52;100.00;101784.63;5083407;28;20158;-72
2022/07/24 06:54:53;;;;;;;5.30;2.53;;;;;;;20.48;100.00;101780.22;5087989;28;20108;-72
2022/07/24 06:57:19;;;;;;;3.85;2.50;;;;;;;20.41;100.00;101770.47;5098636;28;20044;-73
2022/07/24 06:59:44;;;;;;;5.40;2.65;;;;;;;20.36;100.00;101782.97;5107204;28;20019;-72
2022/07/24 07:02:10;;;;;;;2.78;2.10;;;;;;;20.35;100.00;101778.56;5083168;28;20026;-72
2022/07/24 07:04:35;;;;;;;5.63;2.85;;;;;;;20.37;100.00;101776.75;5086978;28;20047;-72
2022/07/24 07:07:02;;;;;;;3.88;2.40;;;;;;;20.44;100.00;101778.44;5097192;28;20064;-72
2022/07/24 07:09:27;;;;;;;2.63;2.33;;;;;;;20.44;100.00;101775.78;5100065;28;20027;-72
2022/07/24 07:11:52;;;;;;;11.98;2.53;;;;;;;20.57;100.00;101781.03;5096157;28;20025;-73
2022/07/24 07:14:18;;;;;;;3.55;2.38;;;;;;;20.55;100.00;101776.56;5101727;28;20024;-72
2022/07/24 07:16:43;;;;;;;3.88;2.20;;;;;;;20.61;100.00;101772.06;5107133;28;20019;-72
2022/07/24 07:19:09;;;;;;;3.97;2.40;;;;;;;20.66;100.00;101773.78;5100440;28;20020;-73
2022/07/24 07:21:36;;;;;;;2.33;2.13;;;;;;;20.74;100.00;101779.09;5080006;28;20020;-72
2022/07/24 07:24:01;;;;;;;3.05;1.95;;;;;;;20.90;100.00;101779.78;5097776;28;20024;-72
2022/07/24 07:26:27;;;;;;;6.88;2.58;;;;;;;20.98;100.00;101785.06;5113088;28;20032;-72
2022/07/24 07:28:52;;;;;;;4.00;2.72;;;;;;;21.10;100.00;101789.41;5096737;28;20027;-72
2022/07/24 07:31:18;;;;;;;5.40;2.10;;;;;;;21.20;100.00;101789.25;5106608;28;20023;-73
2022/07/24 07:33:43;;;;;;;3.40;2.33;;;;;;;21.21;100.00;101784.78;5117074;28;20027;-72
2022/07/24 07:36:09;;;;;;;3.60;2.20;;;;;;;21.34;100.00;101791.75;5118978;28;20027;-72
2022/07/24 07:38:37;;;;;;;4.32;2.17;;;;;;;21.52;100.00;101785.25;5113163;28;20032;-72
2022/07/24 07:41:03;;;;;;;3.20;2.03;;;;;;;21.58;100.00;101784.31;5116009;28;20098;-73
2022/07/24 07:43:28;;;;;;;4.75;1.83;;;;;;;21.59;100.00;101766.47;5102727;28;20058;-71
2022/07/24 07:45:54;;;;;;;2.75;2.00;;;;;;;21.50;100.00;101773.69;5082764;28;20105;-73
2022/07/24 07:48:19;;;;;;;2.83;1.92;;;;;;;21.48;100.00;101764.78;5100143;28;20080;-72
2022/07/24 07:50:44;;;;;;;2.97;1.90;;;;;;;21.48;100.00;101762.09;5083436;28;20486;-71
2022/07/24 07:53:10;;;;;;;3.80;2.00;;;;;;;21.51;100.00;101772.78;5111834;28;20028;-71
2022/07/24 07:55:36;;;;;;;4.55;2.17;;;;;;;21.58;100.00;101767.38;5108905;28;20020;-72
2022/07/24 07:58:01;;;;;;;2.65;1.90;;;;;;;21.72;100.00;101768.94;5098378;28;20422;-72
2022/07/24 08:00:27;;;;;;;4.13;2.45;;;;;;;21.75;100.00;101757.28;5108725;28;20027;-73
2022/07/24 08:02:52;;;;;;;3.97;1.90;;;;;;;21.87;100.00;101765.13;5106922;28;20027;-73
2022/07/24 08:05:18;;;;;;;2.83;1.80;;;;;;;22.00;100.00;101748.84;5106640;28;20027;-74
2022/07/24 08:07:43;;;;;;;5.18;1.98;;;;;;;22.10;100.00;101754.91;5108247;28;20097;-73
2022/07/24 08:10:10;;;;;;;3.03;1.92;;;;;;;22.09;100.00;101754.06;5105509;28;20433;-73
2022/07/24 08:12:35;;;;;;;6.70;2.22;;;;;;;22.16;100.00;101755.69;5107457;28;20478;-74
2022/07/24 08:15:00;;;;;;;3.90;1.95;;;;;;;22.31;100.00;101759.03;5091070;28;20031;-73
2022/07/24 08:17:26;;;;;;;7.32;3.13;;;;;;;22.44;100.00;101755.25;5086464;28;20090;-74
2022/07/24 08:19:51;;;;;;;2.97;1.95;;;;;;;22.51;100.00;101756.91;5105950;27;20016;-72
2022/07/24 08:22:16;;;;;;;4.28;1.80;;;;;;;22.61;100.00;101757.59;5106567;28;20364;-71
2022/07/24 08:24:42;;;;;;;2.53;2.00;;;;;;;22.74;100.00;101752.91;5108606;28;20043;-72
2022/07/24 08:27:07;;;;;;;4.05;2.10;;;;;;;22.88;100.00;101766.94;5091174;28;20047;-73
2022/07/24 08:29:32;;;;;;;3.63;1.65;;;;;;;22.87;100.00;101754.44;5087195;28;20027;-75
2022/07/24 08:31:58;;;;;;;3.90;2.00;;;;;;;22.79;100.00;101759.06;5085521;28;20490;-74
2022/07/24 08:34:23;;;;;;;3.47;2.10;;;;;;;22.89;100.00;101757.94;5106474;28;20570;-74
2022/07/24 08:36:50;;;;;;;3.08;1.88;;;;;;;22.93;100.00;101757.91;5089330;28;20024;-74
2022/07/24 08:39:15;;;;;;;2.90;1.92;;;;;;;23.07;100.00;101747.75;5087192;28;20158;-74
2022/07/24 08:41:42;;;;;;;2.05;1.88;;;;;;;23.20;100.00;101759.16;5105130;27;20060;-72
2022/07/24 08:44:09;;;;;;;2.17;1.92;;;;;;;23.29;100.00;101755.38;5106207;28;20117;-74
2022/07/24 08:46:39;;;;;;;5.47;2.35;;;;;;;23.33;100.00;101759.75;5108321;28;20020;-75
2022/07/24 08:49:11;;;;;;;7.03;2.15;;;;;;;23.44;100.00;101755.06;5094817;28;20032;-73
2022/07/24 08:51:39;;;;;;;3.25;1.90;;;;;;;23.57;100.00;101751.13;5101191;28;20456;-73
2022/07/24 08:54:05;;;;;;;3.65;2.28;;;;;;;23.52;99.68;101747.69;5096806;28;20024;-74
2022/07/24 08:56:33;;;;;;;3.83;2.03;;;;;;;23.56;98.49;101748.50;5106457;28;20047;-74
2022/07/24 08:58:59;;;;;;;5.25;2.08;;;;;;;23.61;98.05;101746.59;5083421;28;20023;-74
2022/07/24 09:01:25;;;;;;;2.00;1.80;;;;;;;23.74;95.89;101739.13;5111160;28;20032;-74
2022/07/24 09:03:50;;;;;;;3.97;2.08;;;;;;;23.74;97.81;101742.69;5105104;28;20368;-75
2022/07/24 09:06:15;;;;;;;3.47;1.90;;;;;;;23.96;97.14;101741.31;5087811;28;20510;-74
2022/07/24 09:08:42;;;;;;;7.65;1.85;;;;;;;24.05;95.37;101730.31;5104914;28;20030;-75
2022/07/24 09:11:09;;;;;;;4.22;1.70;;;;;;;24.14;94.92;101745.34;5106413;28;20020;-74
2022/07/24 09:16:22;;;;;;;5.07;2.20;;;;;;;24.18;94.17;101747.91;5096430;28;20043;-74
2022/07/24 09:19:02;;;;;;;2.83;1.70;;;;;;;24.17;94.82;101740.78;5105975;28;20020;-75
2022/07/24 09:21:31;;;;;;;4.10;2.08;;;;;;;24.28;95.21;101747.66;5090074;28;20023;-75
2022/07/24 09:24:02;;;;;;;2.38;1.83;;;;;;;24.29;92.88;101730.59;5104677;28;20467;-74
2022/07/24 09:26:43;;;;;;;3.88;1.88;;;;;;;24.17;93.90;101735.41;5088139;28;20071;-73
2022/07/24 09:29:11;;;;;;;3.17;1.90;;;;;;;24.39;95.04;101733.00;5086883;28;20020;-74
2022/07/24 09:31:59;;;;;;;2.15;1.60;;;;;;;24.47;92.78;101732.81;5086678;28;20111;-74
2022/07/24 09:34:27;;;;;;;1.90;1.70;;;;;;;24.55;91.82;101741.53;5105480;28;20356;-72
2022/07/24 09:37:06;;;;;;;2.88;1.88;;;;;;;24.61;91.76;101731.50;5102875;28;20524;-75
2022/07/24 09:39:34;;;;;;;2.67;1.77;;;;;;;24.70;90.26;101733.97;5116542;28;20136;-74
2022/07/24 09:42:01;;;;;;;2.00;1.80;;;;;;;24.65;90.42;101735.91;5101821;28;20028;-73
2022/07/24 09:44:29;;;;;;;3.30;1.88;;;;;;;24.68;91.22;101728.66;5101353;28;20485;-74
2022/07/24 09:47:04;;;;;;;2.53;1.77;;;;;;;24.80;90.44;101735.50;5096779;28;20077;-73
2022/07/24 09:49:31;;;;;;;2.30;1.80;;;;;;;24.85;89.45;101738.94;5104016;28;20036;-72
2022/07/24 09:52:05;;;;;;;2.88;1.80;;;;;;;24.92;89.71;101729.75;5109340;28;20429;-71
2022/07/24 09:54:33;;;;;;;5.53;1.70;;;;;;;24.99;89.04;101729.59;5105392;28;20093;-72
2022/07/24 09:57:20;;;;;;;2.63;1.77;;;;;;;25.10;88.17;101732.81;5083809;28;20039;-73
2022/07/24 09:59:59;;;;;;;2.55;1.75;;;;;;;25.29;88.25;101727.75;5076829;28;20059;-71
2022/07/24 10:02:29;;;;;;;1.75;1.55;;;;;;;25.32;86.42;101729.47;5107967;28;20024;-72
2022/07/24 10:04:56;;;;;;;3.25;1.80;;;;;;;25.57;85.57;101721.50;5086653;28;20039;-71
2022/07/24 10:07:25;;;;;;;4.03;1.85;;;;;;;25.61;85.47;101719.59;5103298;28;20348;-71
2022/07/24 10:09:52;;;;;;;2.63;1.98;;;;;;;25.58;85.75;101726.88;5101972;28;20047;-71
2022/07/24 10:12:24;;;;;;;5.32;1.90;;;;;;;25.76;86.09;101721.81;5105559;28;20023;-70
2022/07/24 10:14:52;;;;;;;2.20;1.73;;;;;;;25.46;83.79;101719.19;5105614;28;20031;-72
2022/07/24 10:17:18;;;;;;;2.70;1.65;;;;;;;25.52;82.34;101727.06;5107236;28;20062;-73
2022/07/24 10:19:46;;;;;;;4.13;1.92;;;;;;;25.72;82.17;101725.50;5109989;28;20027;-70
2022/07/24 10:22:14;;;;;;;4.82;2.00;;;;;;;25.72;80.65;101702.16;5083889;28;20028;-70
2022/07/24 10:24:58;;;;;;;3.42;1.92;;;;;;;25.77;81.70;101712.75;5106859;28;20035;-71
2022/07/24 10:27:24;;;;;;;11.43;1.98;;;;;;;26.00;82.61;101719.19;5096771;28;20110;-74
2022/07/24 10:29:52;;;;;;;4.80;2.08;;;;;;;25.89;80.93;101706.97;5077958;28;20024;-74
2022/07/24 10:32:18;;;;;;;3.28;2.20;;;;;;;26.08;77.75;101699.13;5102494;28;20048;-73
2022/07/24 10:35:01;;;;;;;2.28;1.52;;;;;;;26.08;79.12;101711.75;5089365;28;20379;-74
2022/07/24 10:37:36;;;;;;;1.92;1.55;;;;;;;26.32;78.72;101709.16;5095472;28;20035;-74
2022/07/24 10:40:26;;;;;;;4.95;1.80;;;;;;;26.37;79.30;101707.13;5103295;28;20028;-73
2022/07/24 10:43:08;;;;;;;2.33;1.80;;;;;;;26.19;77.95;101704.16;5101200;28;20152;-73
2022/07/24 10:45:34;;;;;;;2.77;1.77;;;;;;;26.40;76.77;101697.13;5101285;28;20020;-74
2022/07/24 10:48:25;;;;;;;3.95;1.77;;;;;;;26.67;74.46;101699.75;5097745;28;20035;-72
2022/07/24 10:51:10;;;;;;;2.28;2.00;;;;;;;26.53;72.82;101694.88;5099283;28;20027;-73
2022/07/24 10:53:38;;;;;;;4.93;2.35;;;;;;;26.50;74.26;101703.06;5101260;28;20679;-77
2022/07/24 10:56:20;;;;;;;3.15;1.85;;;;;;;26.54;73.55;101699.31;5096220;28;20115;-73
2022/07/24 10:59:01;;;;;;;3.72;2.17;;;;;;;26.44;74.74;101689.81;5089651;28;20444;-74
2022/07/24 11:01:28;;;;;;;3.90;2.17;;;;;;;26.62;73.56;101703.56;5104041;28;20035;-74
2022/07/24 11:03:53;;;;;;;3.67;2.05;;;;;;;26.80;75.91;101694.78;5086678;28;20030;-74
2022/07/24 11:06:41;;;;;;;5.30;1.85;;;;;;;27.06;74.16;101692.91;5101954;28;20023;-73
2022/07/24 11:09:06;;;;;;;2.40;2.20;;;;;;;27.00;71.52;101690.44;5114368;28;20023;-74
2022/07/24 11:11:32;;;;;;;3.22;1.70;;;;;;;27.03;74.45;101690.31;5095660;28;20042;-73
2022/07/24 11:13:58;;;;;;;3.00;2.20;;;;;;;27.23;72.69;101693.13;5083229;28;20387;-74
2022/07/24 11:16:30;;;;;;;5.13;2.38;;;;;;;27.47;71.31;101693.09;5102641;28;20031;-73